createdAt,value
2023-08-09T00:00:33.866Z,0.50
2023-08-09T00:03:03.937Z,0.50
2023-08-09T00:05:31.879Z,0.50
2023-08-09T00:08:00.886Z,0.60
2023-08-09T00:10:29.167Z,0.43
2023-08-09T00:12:56.941Z,0.60
2023-08-09T00:15:25.197Z,0.40
2023-08-09T00:17:53.076Z,0.50
2023-08-09T00:20:24.172Z,0.40
2023-08-09T00:22:53.095Z,0.80
2023-08-09T00:25:20.870Z,0.50
2023-08-09T00:27:48.908Z,0.50
2023-08-09T00:30:17.148Z,0.50
2023-08-09T00:32:45.209Z,0.50
2023-08-09T00:35:13.524Z,0.50
2023-08-09T00:37:41.417Z,0.50
2023-08-09T00:40:13.499Z,0.60
2023-08-09T00:42:43.715Z,0.80
2023-08-09T00:45:13.658Z,0.60
2023-08-09T00:47:41.932Z,0.40
2023-08-09T00:50:12.740Z,0.70
2023-08-09T00:52:40.946Z,0.50
2023-08-09T00:55:10.093Z,0.60
2023-08-09T00:57:38.229Z,0.50
2023-08-09T01:00:08.907Z,1.20
2023-08-09T01:02:37.195Z,0.67
2023-08-09T01:05:06.164Z,0.60
2023-08-09T01:08:32.892Z,0.50
2023-08-09T01:11:21.719Z,0.70
2023-08-09T01:13:54.446Z,0.57
2023-08-09T01:16:27.909Z,0.60
2023-08-09T01:18:59.261Z,0.60
2023-08-09T01:21:33.001Z,0.80
2023-08-09T01:24:02.247Z,0.60
2023-08-09T01:26:31.016Z,0.60
2023-08-09T01:28:58.783Z,0.70
2023-08-09T01:31:27.123Z,1.10
2023-08-09T01:33:55.436Z,0.67
2023-08-09T01:36:37.504Z,0.67
2023-08-09T01:39:15.978Z,0.60
2023-08-09T01:41:48.864Z,0.80
2023-08-09T01:44:18.418Z,1.63
2023-08-09T01:46:48.021Z,1.00
2023-08-09T01:49:23.819Z,0.80
2023-08-09T01:51:52.577Z,0.70
2023-08-09T01:54:20.836Z,1.30
2023-08-09T01:56:49.181Z,0.70
2023-08-09T01:59:17.568Z,0.90
2023-08-09T02:01:45.302Z,0.70
2023-08-09T02:04:13.234Z,0.60
2023-08-09T02:06:41.037Z,1.13
2023-08-09T02:09:08.756Z,0.70
2023-08-09T02:11:36.746Z,1.63
2023-08-09T02:14:04.988Z,0.70
2023-08-09T02:16:34.016Z,0.80
2023-08-09T02:19:01.885Z,0.70
2023-08-09T02:21:30.016Z,1.17
2023-08-09T02:23:58.136Z,0.67
2023-08-09T02:26:25.914Z,1.10
2023-08-09T02:28:53.718Z,1.47
2023-08-09T02:31:21.389Z,1.50
2023-08-09T02:33:49.212Z,1.20
2023-08-09T02:36:17.263Z,1.07
2023-08-09T02:38:45.072Z,0.70
2023-08-09T02:41:12.853Z,1.00
2023-08-09T02:43:40.897Z,1.10
2023-08-09T02:46:08.832Z,1.17
2023-08-09T02:48:36.706Z,0.70
2023-08-09T02:51:05.041Z,0.77
2023-08-09T02:54:06.916Z,1.33
2023-08-09T02:56:35.529Z,0.80
2023-08-09T02:59:03.863Z,1.57
2023-08-09T03:01:31.822Z,0.80
2023-08-09T03:04:01.333Z,2.03
2023-08-09T03:06:29.728Z,0.87
2023-08-09T03:08:59.674Z,0.80
2023-08-09T03:11:28.346Z,1.10
2023-08-09T03:14:01.790Z,1.57
2023-08-09T03:16:29.767Z,1.60
2023-08-09T03:18:58.000Z,1.60
2023-08-09T03:21:25.933Z,1.00
2023-08-09T03:23:54.459Z,1.40
2023-08-09T03:26:22.250Z,1.10
2023-08-09T03:28:50.943Z,1.30
2023-08-09T03:31:19.947Z,1.33
2023-08-09T03:33:47.828Z,1.20
2023-08-09T03:36:16.171Z,1.50
2023-08-09T03:38:43.909Z,1.67
2023-08-09T03:41:11.697Z,1.20
2023-08-09T03:43:39.780Z,1.30
2023-08-09T03:46:08.223Z,1.20
2023-08-09T03:48:36.152Z,1.00
2023-08-09T03:51:04.191Z,1.33
2023-08-09T03:53:32.099Z,1.07
2023-08-09T03:55:59.997Z,1.90
2023-08-09T03:58:28.702Z,1.10
2023-08-09T04:00:56.901Z,1.60
2023-08-09T04:03:24.696Z,1.33
2023-08-09T04:05:52.475Z,1.33
2023-08-09T04:08:22.834Z,1.10
2023-08-09T04:10:52.194Z,1.30
2023-08-09T04:13:20.461Z,0.97
2023-08-09T04:15:49.115Z,1.10
2023-08-09T04:18:18.275Z,2.07
2023-08-09T04:20:46.851Z,1.40
2023-08-09T04:23:16.162Z,1.27
2023-08-09T04:25:44.132Z,1.80
2023-08-09T04:28:14.362Z,1.33
2023-08-09T04:30:42.867Z,1.77
2023-08-09T04:33:10.639Z,1.97
2023-08-09T04:35:39.314Z,1.47
2023-08-09T04:38:07.785Z,1.83
2023-08-09T04:40:38.347Z,1.30
2023-08-09T04:43:06.184Z,1.70
2023-08-09T04:45:35.096Z,1.60
2023-08-09T04:48:06.675Z,1.53
2023-08-09T04:50:34.745Z,1.40
2023-08-09T04:53:02.546Z,1.70
2023-08-09T04:55:33.800Z,1.50
2023-08-09T04:58:01.886Z,3.63
2023-08-09T05:00:30.061Z,1.67
2023-08-09T05:02:58.119Z,1.47
2023-08-09T05:05:26.104Z,1.73
2023-08-09T05:07:53.931Z,2.30
2023-08-09T05:10:22.007Z,1.33
2023-08-09T05:12:49.834Z,2.40
2023-08-09T05:15:17.973Z,1.57
2023-08-09T05:17:45.791Z,1.83
2023-08-09T05:20:13.920Z,2.70
2023-08-09T05:22:42.152Z,2.47
2023-08-09T05:25:10.420Z,1.33
2023-08-09T05:27:39.036Z,2.80
2023-08-09T05:30:08.252Z,2.07
2023-08-09T05:32:36.339Z,2.17
2023-08-09T05:35:04.697Z,2.43
2023-08-09T05:37:32.768Z,2.17
2023-08-09T05:40:00.882Z,3.33
2023-08-09T05:42:28.946Z,2.23
2023-08-09T05:44:56.738Z,3.30
2023-08-09T05:47:24.709Z,3.90
2023-08-09T05:49:52.433Z,2.60
2023-08-09T05:52:20.357Z,2.73
2023-08-09T05:54:49.499Z,1.90
2023-08-09T05:57:17.554Z,3.37
2023-08-09T05:59:45.339Z,3.33
2023-08-09T06:02:13.439Z,5.33
2023-08-09T06:04:41.338Z,2.60
2023-08-09T06:07:09.220Z,2.63
2023-08-09T06:09:37.348Z,3.90
2023-08-09T06:12:06.788Z,2.47
2023-08-09T06:14:35.327Z,3.50
2023-08-09T06:17:04.200Z,2.57
2023-08-09T06:19:34.194Z,3.40
2023-08-09T06:22:02.280Z,2.67
2023-08-09T06:24:30.237Z,2.20
2023-08-09T06:26:58.160Z,3.50
2023-08-09T06:29:26.153Z,3.60
2023-08-09T06:31:54.315Z,4.20
2023-08-09T06:34:22.478Z,3.33
2023-08-09T06:36:50.367Z,2.97
2023-08-09T06:39:18.396Z,4.80
2023-08-09T06:41:46.198Z,4.47
2023-08-09T06:44:17.192Z,3.33
2023-08-09T06:46:45.581Z,5.57
2023-08-09T06:49:13.586Z,2.67
2023-08-09T06:51:42.879Z,3.47
2023-08-09T06:54:10.948Z,2.80
2023-08-09T06:56:39.097Z,3.90
2023-08-09T06:59:06.866Z,3.10
2023-08-09T07:01:35.072Z,3.90
2023-08-09T07:04:03.013Z,2.50
2023-08-09T07:06:30.881Z,1.90
2023-08-09T07:08:58.624Z,2.73
2023-08-09T07:11:28.784Z,1.40
2023-08-09T07:13:56.535Z,3.10
2023-08-09T07:16:24.572Z,1.43
2023-08-09T07:18:52.367Z,1.80
2023-08-09T07:21:21.794Z,2.37
2023-08-09T07:23:57.605Z,2.00
2023-08-09T07:26:28.475Z,2.60
2023-08-09T07:28:56.416Z,1.83
2023-08-09T07:31:26.370Z,2.00
2023-08-09T07:33:54.685Z,3.33
2023-08-09T07:36:22.717Z,2.67
2023-08-09T07:38:50.856Z,2.40
2023-08-09T07:41:18.782Z,2.43
2023-08-09T07:43:46.917Z,2.67
2023-08-09T07:46:14.944Z,1.83
2023-08-09T07:48:42.813Z,2.30
2023-08-09T07:51:13.731Z,3.40
2023-08-09T07:53:44.738Z,1.80
2023-08-09T07:56:15.368Z,2.10
2023-08-09T07:58:43.390Z,2.50
2023-08-09T08:01:11.601Z,2.17
2023-08-09T08:03:40.379Z,3.23
2023-08-09T08:06:08.274Z,2.23
2023-08-09T08:08:36.285Z,2.60
2023-08-09T08:11:05.073Z,3.00
2023-08-09T08:13:33.032Z,4.57
2023-08-09T08:16:00.906Z,2.13
2023-08-09T08:18:29.104Z,2.50
2023-08-09T08:21:01.378Z,1.77
2023-08-09T08:23:29.157Z,2.00
2023-08-09T08:25:57.059Z,3.37
2023-08-09T08:28:25.151Z,2.47
2023-08-09T08:30:53.130Z,2.47
2023-08-09T08:33:20.832Z,3.00
2023-08-09T08:35:55.546Z,3.30
2023-08-09T08:38:32.010Z,4.13
2023-08-09T08:41:01.445Z,3.60
2023-08-09T08:43:29.420Z,3.27
2023-08-09T08:46:00.135Z,4.20
2023-08-09T08:48:28.416Z,3.73
2023-08-09T08:50:58.533Z,4.43
2023-08-09T08:53:28.224Z,2.33
2023-08-09T08:55:58.519Z,2.37
2023-08-09T08:58:26.298Z,2.07
2023-08-09T09:00:55.266Z,2.40
2023-08-09T09:03:23.074Z,2.90
2023-08-09T09:05:51.096Z,2.87
2023-08-09T09:08:19.341Z,2.70
2023-08-09T09:10:49.801Z,2.07
2023-08-09T09:13:30.419Z,3.07
2023-08-09T09:16:00.072Z,2.57
2023-08-09T09:18:27.937Z,2.63
2023-08-09T09:20:56.483Z,2.87
2023-08-09T09:23:32.087Z,2.90
2023-08-09T09:26:16.863Z,3.70
2023-08-09T09:28:49.208Z,3.37
2023-08-09T09:31:21.381Z,5.00
2023-08-09T09:33:52.826Z,2.53
2023-08-09T09:36:21.318Z,3.57
2023-08-09T09:38:57.431Z,4.10
2023-08-09T09:41:25.990Z,6.83
2023-08-09T09:43:54.077Z,4.07
2023-08-09T09:46:36.672Z,3.20
2023-08-09T09:49:07.361Z,3.07
2023-08-09T09:51:37.092Z,3.33
2023-08-09T09:54:06.620Z,2.80
2023-08-09T09:56:34.667Z,3.10
2023-08-09T09:59:05.188Z,3.30
2023-08-09T10:01:43.151Z,3.30
2023-08-09T10:04:18.151Z,3.57
2023-08-09T10:06:50.438Z,4.03
2023-08-09T10:09:20.880Z,3.83
2023-08-09T10:11:53.710Z,6.50
2023-08-09T10:14:27.790Z,5.83
2023-08-09T10:17:02.210Z,5.10
2023-08-09T10:19:41.531Z,4.53
2023-08-09T10:22:12.418Z,4.93
2023-08-09T10:24:53.617Z,3.93
2023-08-09T10:27:50.926Z,4.67
2023-08-09T10:30:30.652Z,3.10
2023-08-09T10:33:04.286Z,2.67
2023-08-09T10:35:54.458Z,3.67
2023-08-09T10:38:47.260Z,3.10
2023-08-09T10:41:17.736Z,2.90
2023-08-09T10:43:45.668Z,3.73
2023-08-09T10:46:26.141Z,3.27
2023-08-09T10:49:04.862Z,2.20
2023-08-09T10:51:34.558Z,2.03
2023-08-09T10:54:07.603Z,2.57
2023-08-09T10:56:48.523Z,1.60
2023-08-09T10:59:27.160Z,2.50
2023-08-09T11:01:56.200Z,2.87
2023-08-09T11:04:24.394Z,2.47
2023-08-09T11:06:52.344Z,2.87
2023-08-09T11:09:24.427Z,2.50
2023-08-09T11:11:53.258Z,3.00
2023-08-09T11:14:25.269Z,3.07
2023-08-09T11:17:02.218Z,3.90
2023-08-09T11:19:35.775Z,2.97
2023-08-09T11:22:05.795Z,2.47
2023-08-09T11:24:35.161Z,2.40
2023-08-09T11:27:03.383Z,2.60
2023-08-09T11:29:31.298Z,2.30
2023-08-09T11:32:00.889Z,1.83
2023-08-09T11:34:29.329Z,2.50
2023-08-09T11:36:58.443Z,1.30
2023-08-09T11:39:27.768Z,1.30
2023-08-09T11:41:58.886Z,3.33
2023-08-09T11:44:35.343Z,1.90
2023-08-09T11:47:06.378Z,1.60
2023-08-09T11:49:36.788Z,1.20
2023-08-09T11:52:06.372Z,1.30
2023-08-09T11:54:34.894Z,1.60
2023-08-09T11:57:08.543Z,1.10
2023-08-09T11:59:41.613Z,1.20
2023-08-09T12:02:10.500Z,1.60
2023-08-09T12:04:40.910Z,1.27
2023-08-09T12:07:12.088Z,1.53
2023-08-09T12:09:45.426Z,1.83
2023-08-09T12:12:40.587Z,1.23
2023-08-09T12:15:12.172Z,1.10
2023-08-09T12:17:40.694Z,1.10
2023-08-09T12:20:11.374Z,1.37
2023-08-09T12:22:39.706Z,1.40
2023-08-09T12:25:11.408Z,1.63
2023-08-09T12:27:40.566Z,1.20
2023-08-09T12:30:13.340Z,1.30
2023-08-09T12:32:41.655Z,1.10
2023-08-09T12:35:12.835Z,0.93
2023-08-09T12:37:41.124Z,1.23
2023-08-09T12:40:11.085Z,0.90
2023-08-09T12:42:39.191Z,1.10
2023-08-09T12:45:10.056Z,0.70
2023-08-09T12:47:38.070Z,0.70
2023-08-09T12:50:07.280Z,0.93
2023-08-09T12:52:35.167Z,0.73
2023-08-09T12:55:03.313Z,0.90
2023-08-09T12:59:59.038Z,0.80
2023-08-09T13:02:27.535Z,0.73
2023-08-09T13:04:55.752Z,2.03
2023-08-09T13:07:24.696Z,0.70
2023-08-09T13:09:54.398Z,1.63
2023-08-09T13:12:26.483Z,1.30
2023-08-09T13:14:54.547Z,1.33
2023-08-09T13:17:23.510Z,1.33
2023-08-09T13:19:51.724Z,2.50
2023-08-09T13:22:19.786Z,0.70
2023-08-09T13:24:47.695Z,1.10
2023-08-09T13:27:16.396Z,1.00
2023-08-09T13:29:45.966Z,1.03
2023-08-09T13:32:14.072Z,0.70
2023-08-09T13:34:42.856Z,1.00
2023-08-09T13:37:10.790Z,0.80
2023-08-09T13:39:38.802Z,0.97
2023-08-09T13:42:07.769Z,0.93
2023-08-09T13:44:35.564Z,0.70
2023-08-09T13:47:03.670Z,1.43
2023-08-09T13:49:32.742Z,1.10
2023-08-09T13:52:01.030Z,1.17
2023-08-09T13:54:29.828Z,1.10
2023-08-09T13:56:58.186Z,1.57
2023-08-09T13:59:26.249Z,0.80
2023-08-09T14:01:54.364Z,0.73
2023-08-09T14:04:22.375Z,0.83
2023-08-09T14:06:50.594Z,0.70
2023-08-09T14:09:18.828Z,1.37
2023-08-09T14:11:47.705Z,1.70
2023-08-09T14:14:15.740Z,0.90
2023-08-09T14:16:44.328Z,1.20
2023-08-09T14:19:14.288Z,1.00
2023-08-09T14:21:42.272Z,1.20
2023-08-09T14:24:10.811Z,1.20
2023-08-09T14:26:38.955Z,1.10
2023-08-09T14:29:08.859Z,1.50
2023-08-09T14:31:37.252Z,0.83
2023-08-09T14:34:05.316Z,0.93
2023-08-09T14:36:33.779Z,1.60
2023-08-09T14:39:01.908Z,1.03
2023-08-09T14:41:29.931Z,1.00
2023-08-09T14:43:58.090Z,1.83
2023-08-09T14:46:26.416Z,0.80
2023-08-09T14:51:27.520Z,1.30
2023-08-09T14:53:55.248Z,1.53
2023-08-09T14:56:24.770Z,0.90
2023-08-09T14:58:55.972Z,4.00
2023-08-09T15:01:24.564Z,1.30
2023-08-09T15:03:54.120Z,1.30
2023-08-09T15:06:22.173Z,1.00
2023-08-09T15:08:50.038Z,1.00
2023-08-09T15:11:18.166Z,1.00
2023-08-09T15:13:46.607Z,0.80
2023-08-09T15:16:14.653Z,0.90
2023-08-09T15:18:42.554Z,2.37
2023-08-09T15:21:10.969Z,0.97
2023-08-09T15:23:39.745Z,1.27
2023-08-09T15:26:07.926Z,1.20
2023-08-09T15:28:35.966Z,1.00
2023-08-09T15:31:06.907Z,1.40
2023-08-09T15:33:38.317Z,1.10
2023-08-09T15:36:09.921Z,1.10
2023-08-09T15:38:37.839Z,1.00
2023-08-09T15:41:07.034Z,1.37
2023-08-09T15:43:35.048Z,1.07
2023-08-09T15:46:03.908Z,0.80
2023-08-09T15:48:32.756Z,0.80
2023-08-09T15:51:24.058Z,1.10
2023-08-09T15:53:54.763Z,0.90
2023-08-09T15:56:22.674Z,0.73
2023-08-09T15:58:51.732Z,1.07
2023-08-09T16:01:19.660Z,1.20
2023-08-09T16:03:48.765Z,0.93
2023-08-09T16:06:16.720Z,0.90
2023-08-09T16:08:45.396Z,0.80
2023-08-09T16:11:13.730Z,1.27
2023-08-09T16:13:41.893Z,1.07
2023-08-09T16:16:20.226Z,1.10
2023-08-09T16:18:56.626Z,0.93
2023-08-09T16:21:24.940Z,1.57
2023-08-09T16:23:53.191Z,1.23
2023-08-09T16:26:21.136Z,1.00
2023-08-09T16:28:49.149Z,1.30
2023-08-09T16:31:17.352Z,1.27
2023-08-09T16:33:45.170Z,0.97
2023-08-09T16:36:13.250Z,0.70
2023-08-09T16:38:41.388Z,1.43
2023-08-09T16:41:09.468Z,0.80
2023-08-09T16:43:38.648Z,0.70
2023-08-09T16:46:07.956Z,0.97
2023-08-09T16:48:35.789Z,0.80
2023-08-09T16:51:04.134Z,0.83
2023-08-09T16:53:32.431Z,0.80
2023-08-09T16:56:00.221Z,1.27
2023-08-09T16:58:28.362Z,0.70
2023-08-09T17:00:57.386Z,0.77
2023-08-09T17:03:25.341Z,0.90
2023-08-09T17:05:53.298Z,0.83
2023-08-09T17:08:21.470Z,1.00
2023-08-09T17:10:49.523Z,1.07
2023-08-09T17:13:17.248Z,0.80
2023-08-09T17:15:45.285Z,0.73
2023-08-09T17:18:13.246Z,0.70
2023-08-09T17:20:41.148Z,0.70
2023-08-09T17:23:09.233Z,0.70
2023-08-09T17:25:37.165Z,0.87
2023-08-09T17:28:05.822Z,1.10
2023-08-09T17:30:34.024Z,1.03
2023-08-09T17:33:02.672Z,0.90
2023-08-09T17:35:30.600Z,0.60
2023-08-09T17:37:58.520Z,0.90
2023-08-09T17:40:27.068Z,1.00
2023-08-09T17:42:55.026Z,0.70
2023-08-09T17:45:23.181Z,0.90
2023-08-09T17:47:51.457Z,0.70
2023-08-09T17:50:19.798Z,0.67
2023-08-09T17:52:47.824Z,0.57
2023-08-09T17:55:16.098Z,0.70
2023-08-09T17:57:45.037Z,0.70
2023-08-09T18:00:20.576Z,0.70
2023-08-09T18:02:50.969Z,0.80
2023-08-09T18:05:20.437Z,0.70
2023-08-09T18:07:48.738Z,0.70
2023-08-09T18:10:18.752Z,0.60
2023-08-09T18:12:48.907Z,0.93
2023-08-09T18:15:20.449Z,0.60
2023-08-09T18:17:49.288Z,0.90
2023-08-09T18:20:17.442Z,0.70
2023-08-09T18:22:52.077Z,0.73
2023-08-09T18:25:22.634Z,0.83
2023-08-09T18:27:50.725Z,0.60
2023-08-09T18:30:19.001Z,0.60
2023-08-09T18:32:48.257Z,0.97
2023-08-09T18:35:19.340Z,0.80
2023-08-09T18:37:49.253Z,0.90
2023-08-09T18:40:18.266Z,0.60
2023-08-09T18:42:47.615Z,0.50
2023-08-09T18:45:17.197Z,0.67
2023-08-09T18:47:46.111Z,0.60
2023-08-09T18:50:15.040Z,0.70
2023-08-09T18:52:47.896Z,1.53
2023-08-09T18:55:18.696Z,1.20
2023-08-09T18:57:47.839Z,0.90
2023-08-09T19:00:17.155Z,0.70
2023-08-09T19:02:46.559Z,0.60
2023-08-09T19:05:15.992Z,0.73
2023-08-09T19:07:44.460Z,0.63
2023-08-09T19:10:14.031Z,1.00
2023-08-09T19:12:43.208Z,0.80
2023-08-09T19:15:12.031Z,1.07
2023-08-09T19:17:40.438Z,0.60
2023-08-09T19:20:11.034Z,0.73
2023-08-09T19:22:40.117Z,0.83
2023-08-09T19:25:08.893Z,0.90
2023-08-09T19:27:36.913Z,0.57
2023-08-09T19:30:07.397Z,0.87
2023-08-09T19:32:36.909Z,0.90
2023-08-09T19:35:06.315Z,0.73
2023-08-09T19:37:34.885Z,0.77
2023-08-09T19:40:02.799Z,1.07
2023-08-09T19:42:34.328Z,0.80
2023-08-09T19:45:03.812Z,0.73
2023-08-09T19:47:33.269Z,0.70
2023-08-09T19:50:01.561Z,0.60
2023-08-09T19:52:30.158Z,0.60
2023-08-09T19:54:58.017Z,0.90
2023-08-09T19:57:26.318Z,0.70
2023-08-09T19:59:54.927Z,1.00
2023-08-09T20:02:22.929Z,0.77
2023-08-09T20:04:50.890Z,0.90
2023-08-09T20:07:19.035Z,0.60
2023-08-09T20:09:46.929Z,0.70
2023-08-09T20:12:15.709Z,0.90
2023-08-09T20:14:43.625Z,0.70
2023-08-09T20:17:12.493Z,0.97
2023-08-09T20:19:40.544Z,0.90
2023-08-09T20:22:08.658Z,1.10
2023-08-09T20:24:45.443Z,0.60
2023-08-09T20:27:13.686Z,0.60
2023-08-09T20:29:42.714Z,0.70
2023-08-09T20:32:11.660Z,0.57
2023-08-09T20:34:40.719Z,0.90
2023-08-09T20:37:09.549Z,0.93
2023-08-09T20:39:38.096Z,0.70
2023-08-09T20:42:06.723Z,0.77
2023-08-09T20:44:36.944Z,0.90
2023-08-09T20:47:07.270Z,1.07
2023-08-09T20:49:35.849Z,0.73
2023-08-09T20:52:08.330Z,0.90
2023-08-09T20:54:36.939Z,1.30
2023-08-09T20:57:05.165Z,0.80
2023-08-09T20:59:34.181Z,0.73
2023-08-09T21:02:02.660Z,0.67
2023-08-09T21:04:31.672Z,0.70
2023-08-09T21:06:59.616Z,0.50
2023-08-09T21:09:29.073Z,0.80
2023-08-09T21:11:57.498Z,0.80
2023-08-09T21:14:25.521Z,0.80
2023-08-09T21:16:54.917Z,1.00
2023-08-09T21:19:24.895Z,1.00
2023-08-09T21:21:53.494Z,0.90
2023-08-09T21:26:52.282Z,0.60
2023-08-09T21:29:25.342Z,1.10
2023-08-09T21:31:54.318Z,0.87
2023-08-09T21:34:22.359Z,0.80
2023-08-09T21:36:50.209Z,1.20
2023-08-09T21:39:18.247Z,0.80
2023-08-09T21:41:46.487Z,0.80
2023-08-09T21:44:17.109Z,0.80
2023-08-09T21:46:45.075Z,0.73
2023-08-09T21:49:13.069Z,2.00
2023-08-09T21:51:42.394Z,0.90
2023-08-09T21:54:10.542Z,0.87
2023-08-09T21:56:38.684Z,1.20
2023-08-09T21:59:07.198Z,0.90
2023-08-09T22:01:35.190Z,0.60
2023-08-09T22:04:03.413Z,1.43
2023-08-09T22:06:31.488Z,0.90
2023-08-09T22:08:59.408Z,1.23
2023-08-09T22:11:28.586Z,1.43
2023-08-09T22:13:57.030Z,0.70
2023-08-09T22:16:26.475Z,1.30
2023-08-09T22:18:54.723Z,0.67
2023-08-09T22:21:22.546Z,1.20
2023-08-09T22:23:51.566Z,0.70
2023-08-09T22:26:21.986Z,1.37
2023-08-09T22:28:49.995Z,1.07
2023-08-09T22:31:18.438Z,0.93
2023-08-09T22:33:46.968Z,1.10
2023-08-09T22:36:14.981Z,1.00
2023-08-09T22:38:42.997Z,0.90
2023-08-09T22:41:10.981Z,0.80
2023-08-09T22:43:38.940Z,1.03
2023-08-09T22:46:07.007Z,0.73
2023-08-09T22:48:34.766Z,1.13
2023-08-09T22:51:02.721Z,0.83
2023-08-09T22:53:30.673Z,1.53
2023-08-09T22:55:58.885Z,0.80
2023-08-09T22:58:27.062Z,1.13
2023-08-09T23:00:55.947Z,0.77
2023-08-09T23:03:23.957Z,1.37
2023-08-09T23:05:52.874Z,0.70
2023-08-09T23:08:20.742Z,0.93
2023-08-09T23:10:48.821Z,0.90
2023-08-09T23:13:16.968Z,0.50
2023-08-09T23:15:47.652Z,0.77
2023-08-09T23:18:15.796Z,1.13
2023-08-09T23:20:46.689Z,1.07
2023-08-09T23:23:18.147Z,1.17
2023-08-09T23:25:52.701Z,0.70
2023-08-09T23:28:23.176Z,1.13
2023-08-09T23:30:54.087Z,0.60
2023-08-09T23:33:23.257Z,1.57
2023-08-09T23:35:51.123Z,0.60
2023-08-09T23:38:19.003Z,1.00
2023-08-09T23:40:47.090Z,1.00
2023-08-09T23:43:15.448Z,0.60
2023-08-09T23:45:43.686Z,0.80
2023-08-09T23:48:11.730Z,2.90
2023-08-09T23:50:39.730Z,0.60
2023-08-09T23:53:07.662Z,0.80
2023-08-09T23:55:35.614Z,0.80
2023-08-09T23:58:04.036Z,1.03
